sensor_id;sensor_type;location;lat;lon;timestamp;temperature;humidity
8896;DHT22;4484;48.928;10.066;2023-05-10T00:00:21;12.50;99.90
8896;DHT22;4484;48.928;10.066;2023-05-10T00:02:50;12.50;99.90
8896;DHT22;4484;48.928;10.066;2023-05-10T00:05:17;12.40;99.90
8896;DHT22;4484;48.928;10.066;2023-05-10T00:07:44;12.40;99.90
8896;DHT22;4484;48.928;10.066;2023-05-10T00:10:13;12.40;99.90
8896;DHT22;4484;48.928;10.066;2023-05-10T00:12:41;12.40;99.90
8896;DHT22;4484;48.928;10.066;2023-05-10T00:15:08;12.40;99.90
8896;DHT22;4484;48.928;10.066;2023-05-10T00:17:35;12.40;99.90
8896;DHT22;4484;48.928;10.066;2023-05-10T00:20:02;12.40;99.90
8896;DHT22;4484;48.928;10.066;2023-05-10T00:22:31;12.40;99.90
8896;DHT22;4484;48.928;10.066;2023-05-10T00:24:59;12.40;99.90
8896;DHT22;4484;48.928;10.066;2023-05-10T00:27:25;12.30;99.90
8896;DHT22;4484;48.928;10.066;2023-05-10T00:29:52;12.30;99.90
8896;DHT22;4484;48.928;10.066;2023-05-10T00:32:19;12.30;99.90
8896;DHT22;4484;48.928;10.066;2023-05-10T00:34:47;12.30;99.90
8896;DHT22;4484;48.928;10.066;2023-05-10T00:37:14;12.30;99.90
8896;DHT22;4484;48.928;10.066;2023-05-10T00:39:40;12.30;99.90
8896;DHT22;4484;48.928;10.066;2023-05-10T00:42:07;12.30;99.90
8896;DHT22;4484;48.928;10.066;2023-05-10T00:44:34;12.30;99.90
8896;DHT22;4484;48.928;10.066;2023-05-10T00:47:01;12.30;99.90
8896;DHT22;4484;48.928;10.066;2023-05-10T00:49:28;12.20;99.90
8896;DHT22;4484;48.928;10.066;2023-05-10T00:51:56;12.20;99.90
8896;DHT22;4484;48.928;10.066;2023-05-10T00:54:23;12.20;99.90
8896;DHT22;4484;48.928;10.066;2023-05-10T00:56:51;12.20;99.90
8896;DHT22;4484;48.928;10.066;2023-05-10T00:59:18;12.20;99.90
8896;DHT22;4484;48.928;10.066;2023-05-10T01:01:45;12.20;99.90
8896;DHT22;4484;48.928;10.066;2023-05-10T01:04:13;12.10;99.90
8896;DHT22;4484;48.928;10.066;2023-05-10T01:06:41;12.10;99.90
8896;DHT22;4484;48.928;10.066;2023-05-10T01:09:09;12.10;99.90
8896;DHT22;4484;48.928;10.066;2023-05-10T01:11:38;12.20;99.90
8896;DHT22;4484;48.928;10.066;2023-05-10T01:14:05;12.10;99.90
8896;DHT22;4484;48.928;10.066;2023-05-10T01:16:37;12.10;99.90
8896;DHT22;4484;48.928;10.066;2023-05-10T01:19:23;12.10;99.90
8896;DHT22;4484;48.928;10.066;2023-05-10T01:22:05;12.00;99.90
8896;DHT22;4484;48.928;10.066;2023-05-10T01:33:29;12.00;99.90
8896;DHT22;4484;48.928;10.066;2023-05-10T01:36:08;12.00;99.90
8896;DHT22;4484;48.928;10.066;2023-05-10T01:38:50;11.90;99.90
8896;DHT22;4484;48.928;10.066;2023-05-10T01:41:38;11.90;99.90
8896;DHT22;4484;48.928;10.066;2023-05-10T01:47:10;11.80;99.90
8896;DHT22;4484;48.928;10.066;2023-05-10T01:49:45;11.80;99.90
8896;DHT22;4484;48.928;10.066;2023-05-10T01:52:16;11.80;99.90
8896;DHT22;4484;48.928;10.066;2023-05-10T01:54:53;11.80;99.90
8896;DHT22;4484;48.928;10.066;2023-05-10T01:57:22;11.80;99.90
8896;DHT22;4484;48.928;10.066;2023-05-10T01:59:56;11.80;99.90
8896;DHT22;4484;48.928;10.066;2023-05-10T02:02:24;11.80;99.90
8896;DHT22;4484;48.928;10.066;2023-05-10T02:04:53;11.70;99.90
8896;DHT22;4484;48.928;10.066;2023-05-10T02:07:23;11.80;99.90
8896;DHT22;4484;48.928;10.066;2023-05-10T02:09:51;11.80;99.90
8896;DHT22;4484;48.928;10.066;2023-05-10T02:12:18;11.80;99.90
8896;DHT22;4484;48.928;10.066;2023-05-10T02:14:46;11.70;99.90
8896;DHT22;4484;48.928;10.066;2023-05-10T02:17:14;11.70;99.90
8896;DHT22;4484;48.928;10.066;2023-05-10T02:19:43;11.70;99.90
8896;DHT22;4484;48.928;10.066;2023-05-10T02:22:10;11.70;99.90
8896;DHT22;4484;48.928;10.066;2023-05-10T02:24:38;11.60;99.90
8896;DHT22;4484;48.928;10.066;2023-05-10T02:27:07;11.60;99.90
8896;DHT22;4484;48.928;10.066;2023-05-10T02:29:35;11.60;99.90
8896;DHT22;4484;48.928;10.066;2023-05-10T02:32:03;11.60;99.90
8896;DHT22;4484;48.928;10.066;2023-05-10T02:34:31;11.50;99.90
8896;DHT22;4484;48.928;10.066;2023-05-10T02:36:59;11.50;99.90
8896;DHT22;4484;48.928;10.066;2023-05-10T02:39:28;11.50;99.90
8896;DHT22;4484;48.928;10.066;2023-05-10T02:41:56;11.50;99.90
8896;DHT22;4484;48.928;10.066;2023-05-10T02:44:26;11.40;99.90
8896;DHT22;4484;48.928;10.066;2023-05-10T02:46:54;11.40;99.90
8896;DHT22;4484;48.928;10.066;2023-05-10T02:49:22;11.40;99.90
8896;DHT22;4484;48.928;10.066;2023-05-10T02:51:55;11.30;99.90
8896;DHT22;4484;48.928;10.066;2023-05-10T02:54:30;11.30;99.90
8896;DHT22;4484;48.928;10.066;2023-05-10T02:57:00;11.20;99.90
8896;DHT22;4484;48.928;10.066;2023-05-10T02:59:28;11.20;99.90
8896;DHT22;4484;48.928;10.066;2023-05-10T03:01:55;11.20;99.90
8896;DHT22;4484;48.928;10.066;2023-05-10T03:04:22;11.10;99.90
8896;DHT22;4484;48.928;10.066;2023-05-10T03:06:50;11.10;99.90
8896;DHT22;4484;48.928;10.066;2023-05-10T03:09:17;11.10;99.90
8896;DHT22;4484;48.928;10.066;2023-05-10T03:11:56;11.10;99.90
8896;DHT22;4484;48.928;10.066;2023-05-10T03:14:45;11.10;99.90
8896;DHT22;4484;48.928;10.066;2023-05-10T03:20:09;11.00;99.90
8896;DHT22;4484;48.928;10.066;2023-05-10T03:22:44;11.00;99.90
8896;DHT22;4484;48.928;10.066;2023-05-10T03:25:12;11.00;99.90
8896;DHT22;4484;48.928;10.066;2023-05-10T03:27:41;11.00;99.90
8896;DHT22;4484;48.928;10.066;2023-05-10T03:30:11;11.00;99.90
8896;DHT22;4484;48.928;10.066;2023-05-10T03:32:39;11.00;99.90
8896;DHT22;4484;48.928;10.066;2023-05-10T03:35:08;10.90;99.90
8896;DHT22;4484;48.928;10.066;2023-05-10T03:37:36;10.90;99.90
8896;DHT22;4484;48.928;10.066;2023-05-10T03:40:03;10.90;99.90
8896;DHT22;4484;48.928;10.066;2023-05-10T03:42:33;10.90;99.90
8896;DHT22;4484;48.928;10.066;2023-05-10T03:44:59;10.90;99.90
8896;DHT22;4484;48.928;10.066;2023-05-10T03:47:26;10.90;99.90
8896;DHT22;4484;48.928;10.066;2023-05-10T03:49:53;10.90;99.90
8896;DHT22;4484;48.928;10.066;2023-05-10T03:52:20;10.90;99.90
8896;DHT22;4484;48.928;10.066;2023-05-10T03:54:47;10.90;99.90
8896;DHT22;4484;48.928;10.066;2023-05-10T03:57:14;10.80;99.90
8896;DHT22;4484;48.928;10.066;2023-05-10T03:59:41;10.80;99.90
8896;DHT22;4484;48.928;10.066;2023-05-10T04:02:08;10.80;99.90
8896;DHT22;4484;48.928;10.066;2023-05-10T04:04:35;10.90;99.90
8896;DHT22;4484;48.928;10.066;2023-05-10T04:07:03;10.90;99.90
8896;DHT22;4484;48.928;10.066;2023-05-10T04:09:30;10.80;99.90
8896;DHT22;4484;48.928;10.066;2023-05-10T04:11:56;10.90;99.90
8896;DHT22;4484;48.928;10.066;2023-05-10T04:14:25;10.90;99.90
8896;DHT22;4484;48.928;10.066;2023-05-10T04:16:51;10.80;99.90
8896;DHT22;4484;48.928;10.066;2023-05-10T04:19:18;10.90;99.90
8896;DHT22;4484;48.928;10.066;2023-05-10T04:21:45;10.90;99.90
8896;DHT22;4484;48.928;10.066;2023-05-10T04:24:12;10.90;99.90
8896;DHT22;4484;48.928;10.066;2023-05-10T04:26:39;10.90;99.90
8896;DHT22;4484;48.928;10.066;2023-05-10T04:29:06;10.90;99.90
8896;DHT22;4484;48.928;10.066;2023-05-10T04:31:33;10.90;99.90
8896;DHT22;4484;48.928;10.066;2023-05-10T04:34:00;10.90;99.90
8896;DHT22;4484;48.928;10.066;2023-05-10T04:36:27;10.90;99.90
8896;DHT22;4484;48.928;10.066;2023-05-10T04:38:54;10.90;99.90
8896;DHT22;4484;48.928;10.066;2023-05-10T04:41:21;10.90;99.90
8896;DHT22;4484;48.928;10.066;2023-05-10T04:43:48;11.00;99.90
8896;DHT22;4484;48.928;10.066;2023-05-10T04:46:16;11.00;99.90
8896;DHT22;4484;48.928;10.066;2023-05-10T04:48:43;11.00;99.90
8896;DHT22;4484;48.928;10.066;2023-05-10T04:51:09;11.00;99.90
8896;DHT22;4484;48.928;10.066;2023-05-10T04:53:36;11.00;99.90
8896;DHT22;4484;48.928;10.066;2023-05-10T04:56:03;11.10;99.90
8896;DHT22;4484;48.928;10.066;2023-05-10T04:58:30;11.10;99.90
8896;DHT22;4484;48.928;10.066;2023-05-10T05:01:03;11.10;99.90
8896;DHT22;4484;48.928;10.066;2023-05-10T05:03:31;11.10;99.90
8896;DHT22;4484;48.928;10.066;2023-05-10T05:05:58;11.10;99.90
8896;DHT22;4484;48.928;10.066;2023-05-10T05:08:25;11.10;99.90
8896;DHT22;4484;48.928;10.066;2023-05-10T05:10:52;11.10;99.90
8896;DHT22;4484;48.928;10.066;2023-05-10T05:13:19;11.20;99.90
8896;DHT22;4484;48.928;10.066;2023-05-10T05:15:46;11.20;99.90
8896;DHT22;4484;48.928;10.066;2023-05-10T05:18:13;11.30;99.90
8896;DHT22;4484;48.928;10.066;2023-05-10T05:20:40;11.30;99.90
8896;DHT22;4484;48.928;10.066;2023-05-10T05:23:07;11.40;99.90
8896;DHT22;4484;48.928;10.066;2023-05-10T05:25:34;11.50;99.90
8896;DHT22;4484;48.928;10.066;2023-05-10T05:28:01;11.50;99.90
8896;DHT22;4484;48.928;10.066;2023-05-10T05:30:28;11.50;99.90
8896;DHT22;4484;48.928;10.066;2023-05-10T05:32:55;11.50;99.90
8896;DHT22;4484;48.928;10.066;2023-05-10T05:35:22;11.60;99.90
8896;DHT22;4484;48.928;10.066;2023-05-10T05:37:48;11.60;99.90
8896;DHT22;4484;48.928;10.066;2023-05-10T05:40:15;11.60;99.90
8896;DHT22;4484;48.928;10.066;2023-05-10T05:42:42;11.70;99.90
8896;DHT22;4484;48.928;10.066;2023-05-10T05:45:09;11.70;99.90
8896;DHT22;4484;48.928;10.066;2023-05-10T05:47:40;11.80;99.90
8896;DHT22;4484;48.928;10.066;2023-05-10T05:50:07;11.80;99.90
8896;DHT22;4484;48.928;10.066;2023-05-10T05:52:34;11.80;99.90
8896;DHT22;4484;48.928;10.066;2023-05-10T05:55:01;11.80;99.90
8896;DHT22;4484;48.928;10.066;2023-05-10T05:57:28;11.80;99.90
8896;DHT22;4484;48.928;10.066;2023-05-10T05:59:55;11.80;99.90
8896;DHT22;4484;48.928;10.066;2023-05-10T06:02:21;11.80;99.90
8896;DHT22;4484;48.928;10.066;2023-05-10T06:04:48;11.80;99.90
8896;DHT22;4484;48.928;10.066;2023-05-10T06:07:15;11.80;99.90
8896;DHT22;4484;48.928;10.066;2023-05-10T06:09:42;11.80;99.90
8896;DHT22;4484;48.928;10.066;2023-05-10T06:12:09;11.80;99.90
8896;DHT22;4484;48.928;10.066;2023-05-10T06:14:36;11.90;99.90
8896;DHT22;4484;48.928;10.066;2023-05-10T06:17:03;11.90;99.90
8896;DHT22;4484;48.928;10.066;2023-05-10T06:19:31;12.00;99.90
8896;DHT22;4484;48.928;10.066;2023-05-10T06:21:58;12.10;99.90
8896;DHT22;4484;48.928;10.066;2023-05-10T06:24:25;12.20;99.90
8896;DHT22;4484;48.928;10.066;2023-05-10T06:26:53;12.30;99.90
8896;DHT22;4484;48.928;10.066;2023-05-10T06:29:20;12.30;99.90
8896;DHT22;4484;48.928;10.066;2023-05-10T06:31:47;12.30;99.90
8896;DHT22;4484;48.928;10.066;2023-05-10T06:34:14;12.30;99.90
8896;DHT22;4484;48.928;10.066;2023-05-10T06:36:42;12.40;99.90
8896;DHT22;4484;48.928;10.066;2023-05-10T06:39:09;12.40;99.90
8896;DHT22;4484;48.928;10.066;2023-05-10T06:41:38;12.40;99.90
8896;DHT22;4484;48.928;10.066;2023-05-10T06:44:05;12.40;99.90
8896;DHT22;4484;48.928;10.066;2023-05-10T06:46:32;12.50;99.90
8896;DHT22;4484;48.928;10.066;2023-05-10T06:48:59;12.50;99.90
8896;DHT22;4484;48.928;10.066;2023-05-10T06:51:25;12.60;99.90
8896;DHT22;4484;48.928;10.066;2023-05-10T06:53:52;12.60;99.90
8896;DHT22;4484;48.928;10.066;2023-05-10T06:56:19;12.70;99.90
8896;DHT22;4484;48.928;10.066;2023-05-10T06:58:48;12.70;99.90
8896;DHT22;4484;48.928;10.066;2023-05-10T07:01:15;12.80;99.90
8896;DHT22;4484;48.928;10.066;2023-05-10T07:03:42;12.80;99.90
8896;DHT22;4484;48.928;10.066;2023-05-10T07:06:09;12.90;99.90
8896;DHT22;4484;48.928;10.066;2023-05-10T07:08:56;13.00;99.90
8896;DHT22;4484;48.928;10.066;2023-05-10T07:11:23;13.20;99.90
8896;DHT22;4484;48.928;10.066;2023-05-10T07:13:50;13.30;99.90
8896;DHT22;4484;48.928;10.066;2023-05-10T07:16:17;13.30;99.90
8896;DHT22;4484;48.928;10.066;2023-05-10T07:18:44;13.40;99.90
8896;DHT22;4484;48.928;10.066;2023-05-10T07:21:11;13.40;99.90
8896;DHT22;4484;48.928;10.066;2023-05-10T07:23:37;13.40;99.90
8896;DHT22;4484;48.928;10.066;2023-05-10T07:26:04;13.50;99.90
8896;DHT22;4484;48.928;10.066;2023-05-10T07:28:31;13.50;99.90
8896;DHT22;4484;48.928;10.066;2023-05-10T07:30:58;13.60;99.90
8896;DHT22;4484;48.928;10.066;2023-05-10T07:33:25;13.70;99.90
8896;DHT22;4484;48.928;10.066;2023-05-10T07:35:52;13.70;99.90
8896;DHT22;4484;48.928;10.066;2023-05-10T07:38:18;13.80;99.90
8896;DHT22;4484;48.928;10.066;2023-05-10T07:40:45;13.90;99.90
8896;DHT22;4484;48.928;10.066;2023-05-10T07:43:12;14.10;99.90
8896;DHT22;4484;48.928;10.066;2023-05-10T07:45:39;14.20;99.90
8896;DHT22;4484;48.928;10.066;2023-05-10T07:48:06;14.40;99.90
8896;DHT22;4484;48.928;10.066;2023-05-10T07:50:33;14.70;99.90
8896;DHT22;4484;48.928;10.066;2023-05-10T07:53:00;15.10;99.90
8896;DHT22;4484;48.928;10.066;2023-05-10T07:55:27;15.50;99.90
8896;DHT22;4484;48.928;10.066;2023-05-10T07:57:54;15.70;99.90
8896;DHT22;4484;48.928;10.066;2023-05-10T08:00:21;15.90;99.90
8896;DHT22;4484;48.928;10.066;2023-05-10T08:02:48;16.20;99.90
8896;DHT22;4484;48.928;10.066;2023-05-10T08:05:15;16.30;99.90
8896;DHT22;4484;48.928;10.066;2023-05-10T08:07:42;16.20;99.90
8896;DHT22;4484;48.928;10.066;2023-05-10T08:10:09;16.00;99.90
8896;DHT22;4484;48.928;10.066;2023-05-10T08:12:38;15.80;99.90
8896;DHT22;4484;48.928;10.066;2023-05-10T08:15:05;15.70;99.90
8896;DHT22;4484;48.928;10.066;2023-05-10T08:17:33;15.50;99.90
8896;DHT22;4484;48.928;10.066;2023-05-10T08:20:00;15.40;99.90
8896;DHT22;4484;48.928;10.066;2023-05-10T08:22:27;15.30;99.90
8896;DHT22;4484;48.928;10.066;2023-05-10T08:24:53;15.20;99.90
8896;DHT22;4484;48.928;10.066;2023-05-10T08:27:20;15.20;99.90
8896;DHT22;4484;48.928;10.066;2023-05-10T08:29:47;15.20;99.90
8896;DHT22;4484;48.928;10.066;2023-05-10T08:32:16;15.30;99.90
8896;DHT22;4484;48.928;10.066;2023-05-10T08:34:43;15.40;99.90
8896;DHT22;4484;48.928;10.066;2023-05-10T08:37:10;15.70;99.90
8896;DHT22;4484;48.928;10.066;2023-05-10T08:39:40;16.00;99.90
8896;DHT22;4484;48.928;10.066;2023-05-10T08:42:07;16.20;99.90
8896;DHT22;4484;48.928;10.066;2023-05-10T08:44:36;16.30;99.90
8896;DHT22;4484;48.928;10.066;2023-05-10T08:47:06;16.30;99.90
8896;DHT22;4484;48.928;10.066;2023-05-10T08:49:35;16.30;99.90
8896;DHT22;4484;48.928;10.066;2023-05-10T08:52:04;16.30;99.90
8896;DHT22;4484;48.928;10.066;2023-05-10T08:54:32;16.40;99.90
8896;DHT22;4484;48.928;10.066;2023-05-10T08:57:00;16.60;99.90
8896;DHT22;4484;48.928;10.066;2023-05-10T08:59:27;16.40;99.90
8896;DHT22;4484;48.928;10.066;2023-05-10T09:01:57;16.40;99.90
8896;DHT22;4484;48.928;10.066;2023-05-10T09:04:25;16.20;99.90
8896;DHT22;4484;48.928;10.066;2023-05-10T09:06:53;15.90;99.90
8896;DHT22;4484;48.928;10.066;2023-05-10T09:09:20;15.70;99.90
8896;DHT22;4484;48.928;10.066;2023-05-10T09:11:48;15.60;99.90
8896;DHT22;4484;48.928;10.066;2023-05-10T09:14:15;15.40;99.90
8896;DHT22;4484;48.928;10.066;2023-05-10T09:16:42;15.30;99.90
8896;DHT22;4484;48.928;10.066;2023-05-10T09:19:09;15.30;99.90
8896;DHT22;4484;48.928;10.066;2023-05-10T09:21:37;15.40;99.90
8896;DHT22;4484;48.928;10.066;2023-05-10T09:24:08;15.50;99.90
8896;DHT22;4484;48.928;10.066;2023-05-10T09:26:35;15.60;99.90
8896;DHT22;4484;48.928;10.066;2023-05-10T09:29:11;15.70;99.90
8896;DHT22;4484;48.928;10.066;2023-05-10T09:34:30;15.60;99.90
8896;DHT22;4484;48.928;10.066;2023-05-10T09:37:00;15.40;99.90
8896;DHT22;4484;48.928;10.066;2023-05-10T09:39:35;15.30;99.90
8896;DHT22;4484;48.928;10.066;2023-05-10T09:42:09;15.20;99.90
8896;DHT22;4484;48.928;10.066;2023-05-10T09:44:36;15.20;99.90
8896;DHT22;4484;48.928;10.066;2023-05-10T09:47:05;15.20;99.90
8896;DHT22;4484;48.928;10.066;2023-05-10T09:49:32;15.20;99.90
8896;DHT22;4484;48.928;10.066;2023-05-10T09:54:27;15.10;99.90
8896;DHT22;4484;48.928;10.066;2023-05-10T09:56:54;14.90;99.90
8896;DHT22;4484;48.928;10.066;2023-05-10T09:59:21;14.80;99.90
8896;DHT22;4484;48.928;10.066;2023-05-10T10:01:51;14.60;99.90
8896;DHT22;4484;48.928;10.066;2023-05-10T10:04:19;14.40;99.90
8896;DHT22;4484;48.928;10.066;2023-05-10T10:07:07;14.30;99.90
8896;DHT22;4484;48.928;10.066;2023-05-10T10:09:34;14.10;99.90
8896;DHT22;4484;48.928;10.066;2023-05-10T10:12:02;13.90;99.90
8896;DHT22;4484;48.928;10.066;2023-05-10T10:14:30;13.80;99.90
8896;DHT22;4484;48.928;10.066;2023-05-10T10:16:57;13.70;99.90
8896;DHT22;4484;48.928;10.066;2023-05-10T10:19:34;13.80;99.90
8896;DHT22;4484;48.928;10.066;2023-05-10T10:22:02;13.90;99.90
8896;DHT22;4484;48.928;10.066;2023-05-10T10:24:29;14.10;99.90
8896;DHT22;4484;48.928;10.066;2023-05-10T10:27:04;14.40;99.90
8896;DHT22;4484;48.928;10.066;2023-05-10T10:30:07;14.60;99.90
8896;DHT22;4484;48.928;10.066;2023-05-10T10:35:06;15.20;99.90
8896;DHT22;4484;48.928;10.066;2023-05-10T10:37:46;15.40;99.90
8896;DHT22;4484;48.928;10.066;2023-05-10T10:40:23;15.70;99.90
8896;DHT22;4484;48.928;10.066;2023-05-10T10:42:52;15.90;99.90
8896;DHT22;4484;48.928;10.066;2023-05-10T10:45:20;16.10;99.90
8896;DHT22;4484;48.928;10.066;2023-05-10T10:47:48;16.30;99.90
8896;DHT22;4484;48.928;10.066;2023-05-10T10:50:15;16.60;99.90
8896;DHT22;4484;48.928;10.066;2023-05-10T10:52:43;16.70;99.90
8896;DHT22;4484;48.928;10.066;2023-05-10T11:00:33;16.90;99.90
8896;DHT22;4484;48.928;10.066;2023-05-10T11:03:10;16.80;99.90
8896;DHT22;4484;48.928;10.066;2023-05-10T11:05:42;16.80;99.90
8896;DHT22;4484;48.928;10.066;2023-05-10T11:08:11;17.00;99.90
8896;DHT22;4484;48.928;10.066;2023-05-10T11:10:40;17.00;99.90
8896;DHT22;4484;48.928;10.066;2023-05-10T11:13:10;17.10;99.90
8896;DHT22;4484;48.928;10.066;2023-05-10T11:15:40;17.10;99.90
8896;DHT22;4484;48.928;10.066;2023-05-10T11:18:23;17.30;99.90
8896;DHT22;4484;48.928;10.066;2023-05-10T11:20:52;17.60;99.90
8896;DHT22;4484;48.928;10.066;2023-05-10T11:23:21;17.70;99.90
8896;DHT22;4484;48.928;10.066;2023-05-10T11:25:49;17.60;99.90
8896;DHT22;4484;48.928;10.066;2023-05-10T11:28:17;17.30;99.90
8896;DHT22;4484;48.928;10.066;2023-05-10T11:30:46;17.10;99.90
8896;DHT22;4484;48.928;10.066;2023-05-10T11:33:17;17.00;99.90
8896;DHT22;4484;48.928;10.066;2023-05-10T11:35:45;16.80;99.90
8896;DHT22;4484;48.928;10.066;2023-05-10T11:38:12;16.70;99.90
8896;DHT22;4484;48.928;10.066;2023-05-10T11:40:40;16.50;99.90
8896;DHT22;4484;48.928;10.066;2023-05-10T11:43:09;16.40;99.90
8896;DHT22;4484;48.928;10.066;2023-05-10T11:45:37;16.30;99.90
8896;DHT22;4484;48.928;10.066;2023-05-10T11:48:04;16.40;99.90
8896;DHT22;4484;48.928;10.066;2023-05-10T11:50:31;16.50;99.90
8896;DHT22;4484;48.928;10.066;2023-05-10T11:52:59;16.50;99.90
8896;DHT22;4484;48.928;10.066;2023-05-10T11:55:25;16.50;99.90
8896;DHT22;4484;48.928;10.066;2023-05-10T11:58:00;16.50;99.90
8896;DHT22;4484;48.928;10.066;2023-05-10T12:00:27;16.50;99.90
8896;DHT22;4484;48.928;10.066;2023-05-10T12:02:54;16.60;99.90
8896;DHT22;4484;48.928;10.066;2023-05-10T12:05:22;16.70;99.90
8896;DHT22;4484;48.928;10.066;2023-05-10T12:07:49;16.90;99.90
8896;DHT22;4484;48.928;10.066;2023-05-10T12:10:16;17.00;99.90
8896;DHT22;4484;48.928;10.066;2023-05-10T12:12:47;17.00;99.90
8896;DHT22;4484;48.928;10.066;2023-05-10T12:15:22;17.10;99.90
8896;DHT22;4484;48.928;10.066;2023-05-10T12:17:50;17.20;99.90
8896;DHT22;4484;48.928;10.066;2023-05-10T12:20:18;17.40;99.90
8896;DHT22;4484;48.928;10.066;2023-05-10T12:22:57;17.30;99.90
8896;DHT22;4484;48.928;10.066;2023-05-10T12:25:30;17.20;99.90
8896;DHT22;4484;48.928;10.066;2023-05-10T12:27:59;17.00;99.90
8896;DHT22;4484;48.928;10.066;2023-05-10T12:30:29;16.70;99.90
8896;DHT22;4484;48.928;10.066;2023-05-10T12:33:13;16.40;99.90
8896;DHT22;4484;48.928;10.066;2023-05-10T12:35:49;16.10;99.90
8896;DHT22;4484;48.928;10.066;2023-05-10T12:38:49;15.80;99.90
8896;DHT22;4484;48.928;10.066;2023-05-10T12:41:18;15.50;99.90
8896;DHT22;4484;48.928;10.066;2023-05-10T12:43:45;15.40;99.90
8896;DHT22;4484;48.928;10.066;2023-05-10T12:46:16;15.20;99.90
8896;DHT22;4484;48.928;10.066;2023-05-10T12:48:44;15.10;99.90
8896;DHT22;4484;48.928;10.066;2023-05-10T12:51:34;15.00;99.90
8896;DHT22;4484;48.928;10.066;2023-05-10T12:54:02;14.80;99.90
8896;DHT22;4484;48.928;10.066;2023-05-10T12:56:29;14.80;99.90
8896;DHT22;4484;48.928;10.066;2023-05-10T12:58:56;14.60;99.90
8896;DHT22;4484;48.928;10.066;2023-05-10T13:01:23;14.50;99.90
8896;DHT22;4484;48.928;10.066;2023-05-10T13:03:50;14.40;99.90
8896;DHT22;4484;48.928;10.066;2023-05-10T13:06:17;14.40;99.90
8896;DHT22;4484;48.928;10.066;2023-05-10T13:08:44;14.30;99.90
8896;DHT22;4484;48.928;10.066;2023-05-10T13:11:10;14.40;99.90
8896;DHT22;4484;48.928;10.066;2023-05-10T13:13:37;14.30;99.90
8896;DHT22;4484;48.928;10.066;2023-05-10T13:16:04;14.30;99.90
8896;DHT22;4484;48.928;10.066;2023-05-10T13:18:31;14.40;99.90
8896;DHT22;4484;48.928;10.066;2023-05-10T13:20:58;14.30;99.90
8896;DHT22;4484;48.928;10.066;2023-05-10T13:23:25;14.40;99.90
8896;DHT22;4484;48.928;10.066;2023-05-10T13:25:52;14.40;99.90
8896;DHT22;4484;48.928;10.066;2023-05-10T13:28:18;14.50;99.90
8896;DHT22;4484;48.928;10.066;2023-05-10T13:30:45;14.60;99.90
8896;DHT22;4484;48.928;10.066;2023-05-10T13:33:12;14.50;99.90
8896;DHT22;4484;48.928;10.066;2023-05-10T13:35:39;14.40;99.90
8896;DHT22;4484;48.928;10.066;2023-05-10T13:38:06;14.30;99.90
8896;DHT22;4484;48.928;10.066;2023-05-10T13:40:34;14.30;99.90
8896;DHT22;4484;48.928;10.066;2023-05-10T13:43:02;14.20;99.90
8896;DHT22;4484;48.928;10.066;2023-05-10T13:45:29;14.20;99.90
8896;DHT22;4484;48.928;10.066;2023-05-10T13:47:56;14.20;99.90
8896;DHT22;4484;48.928;10.066;2023-05-10T13:50:22;14.20;99.90
8896;DHT22;4484;48.928;10.066;2023-05-10T13:52:49;14.20;99.90
8896;DHT22;4484;48.928;10.066;2023-05-10T13:55:16;14.20;99.90
8896;DHT22;4484;48.928;10.066;2023-05-10T13:57:43;14.30;99.90
8896;DHT22;4484;48.928;10.066;2023-05-10T14:00:10;14.30;99.90
8896;DHT22;4484;48.928;10.066;2023-05-10T14:02:37;14.50;99.90
8896;DHT22;4484;48.928;10.066;2023-05-10T14:05:05;14.60;99.90
8896;DHT22;4484;48.928;10.066;2023-05-10T14:07:31;14.70;99.90
8896;DHT22;4484;48.928;10.066;2023-05-10T14:09:58;14.90;99.90
8896;DHT22;4484;48.928;10.066;2023-05-10T14:12:25;15.10;99.90
8896;DHT22;4484;48.928;10.066;2023-05-10T14:14:52;15.30;99.90
8896;DHT22;4484;48.928;10.066;2023-05-10T14:17:19;15.40;99.90
8896;DHT22;4484;48.928;10.066;2023-05-10T14:19:45;15.40;99.90
8896;DHT22;4484;48.928;10.066;2023-05-10T14:22:12;15.50;99.90
8896;DHT22;4484;48.928;10.066;2023-05-10T14:24:39;15.50;99.90
8896;DHT22;4484;48.928;10.066;2023-05-10T14:27:06;15.40;99.90
8896;DHT22;4484;48.928;10.066;2023-05-10T14:29:33;15.40;99.90
8896;DHT22;4484;48.928;10.066;2023-05-10T14:32:00;15.30;99.90
8896;DHT22;4484;48.928;10.066;2023-05-10T14:34:27;15.30;99.90
8896;DHT22;4484;48.928;10.066;2023-05-10T14:36:54;15.20;99.90
8896;DHT22;4484;48.928;10.066;2023-05-10T14:39:20;15.10;99.90
8896;DHT22;4484;48.928;10.066;2023-05-10T14:41:47;15.00;99.90
8896;DHT22;4484;48.928;10.066;2023-05-10T14:44:14;14.90;99.90
8896;DHT22;4484;48.928;10.066;2023-05-10T14:46:42;14.80;99.90
8896;DHT22;4484;48.928;10.066;2023-05-10T14:49:09;14.80;99.90
8896;DHT22;4484;48.928;10.066;2023-05-10T14:51:35;14.80;99.90
8896;DHT22;4484;48.928;10.066;2023-05-10T14:54:03;14.80;99.90
8896;DHT22;4484;48.928;10.066;2023-05-10T14:56:30;14.90;99.90
8896;DHT22;4484;48.928;10.066;2023-05-10T14:58:57;15.00;99.90
8896;DHT22;4484;48.928;10.066;2023-05-10T15:01:24;15.10;99.90
8896;DHT22;4484;48.928;10.066;2023-05-10T15:03:52;15.20;99.90
8896;DHT22;4484;48.928;10.066;2023-05-10T15:06:23;15.30;99.90
8896;DHT22;4484;48.928;10.066;2023-05-10T15:08:56;15.30;99.90
8896;DHT22;4484;48.928;10.066;2023-05-10T15:11:23;15.30;99.90
8896;DHT22;4484;48.928;10.066;2023-05-10T15:13:50;15.30;99.90
8896;DHT22;4484;48.928;10.066;2023-05-10T15:16:17;15.30;99.90
8896;DHT22;4484;48.928;10.066;2023-05-10T15:18:44;15.30;99.90
8896;DHT22;4484;48.928;10.066;2023-05-10T15:21:11;15.30;99.90
8896;DHT22;4484;48.928;10.066;2023-05-10T15:23:38;15.30;99.90
8896;DHT22;4484;48.928;10.066;2023-05-10T15:26:05;15.30;99.90
8896;DHT22;4484;48.928;10.066;2023-05-10T15:28:32;15.40;99.90
8896;DHT22;4484;48.928;10.066;2023-05-10T15:31:00;15.40;99.90
8896;DHT22;4484;48.928;10.066;2023-05-10T15:33:27;15.50;99.90
8896;DHT22;4484;48.928;10.066;2023-05-10T15:35:54;15.50;99.90
8896;DHT22;4484;48.928;10.066;2023-05-10T15:38:21;15.60;99.90
8896;DHT22;4484;48.928;10.066;2023-05-10T15:40:48;15.70;99.90
8896;DHT22;4484;48.928;10.066;2023-05-10T15:43:14;15.70;99.90
8896;DHT22;4484;48.928;10.066;2023-05-10T15:45:41;15.60;99.90
8896;DHT22;4484;48.928;10.066;2023-05-10T15:48:08;15.50;99.90
8896;DHT22;4484;48.928;10.066;2023-05-10T15:50:36;15.50;99.90
8896;DHT22;4484;48.928;10.066;2023-05-10T15:53:02;15.50;99.90
8896;DHT22;4484;48.928;10.066;2023-05-10T15:55:29;15.60;99.90
8896;DHT22;4484;48.928;10.066;2023-05-10T15:57:56;15.50;99.90
8896;DHT22;4484;48.928;10.066;2023-05-10T16:00:23;15.50;99.90
8896;DHT22;4484;48.928;10.066;2023-05-10T16:02:51;15.40;99.90
8896;DHT22;4484;48.928;10.066;2023-05-10T16:05:19;15.40;99.90
8896;DHT22;4484;48.928;10.066;2023-05-10T16:07:46;15.40;99.90
8896;DHT22;4484;48.928;10.066;2023-05-10T16:10:13;15.30;99.90
8896;DHT22;4484;48.928;10.066;2023-05-10T16:12:40;15.20;99.90
8896;DHT22;4484;48.928;10.066;2023-05-10T16:15:07;15.10;99.90
8896;DHT22;4484;48.928;10.066;2023-05-10T16:17:34;14.90;99.90
8896;DHT22;4484;48.928;10.066;2023-05-10T16:20:01;14.80;99.90